Flight Track Log - Related Links

Times and Time Zones

All times are in EDT time to prevent confusion due to time zone crossing. See the UAL555 flight status page for this flight to view local times or setup timezone preferences in your user account.

Time Position Orientation Groundspeed Altitude Reporting Facility
EDT Latitude Longitude Course Direction KTS MPH feet Rate Location/Type
Thu 10:36:13 PM 29.9594 -95.3414 334° Northwest 174 200 800  Level Houston Center
Thu 10:37:08 PM 29.9339 -95.3831 235° Southwest 242 278 2,600 1,745 Climbing Houston Center
Thu 10:38:00 PM 30.2970 -95.5205 334° Northwest  Level FlightAware Approximate
Thu 10:38:03 PM 29.9928 -95.4072 340° North 287 330 4,000  Level Houston Center
Thu 10:39:00 PM 30.4034 -95.5796 334° Northwest  Level FlightAware Approximate
Thu 10:39:04 PM 30.0689 -95.4128 356° North 272 313 4,000  Level Houston Center
Thu 10:40:00 PM 30.5099 -95.6383 337° Northwest  Level FlightAware Approximate
Thu 10:40:04 PM 30.1433 -95.4256 352° North 272 313 4,500  Level Houston Center
Thu 10:41:00 PM 30.6167 -95.6963 334° Northwest  Level FlightAware Approximate
Thu 10:41:14 PM 30.2178 -95.4658 335° Northwest 281 323 7,400  Level Houston Center
Thu 10:42:15 PM 30.2914 -95.5089 333° Northwest 290 334 10,000 1,902 Climbing Houston Center
Thu 10:43:17 PM 30.3708 -95.5550 333° Northwest 310 357 11,300 1,756 Climbing Houston Center
Thu 10:44:18 PM 30.4628 -95.6069 334° Northwest 357 411 13,600 2,459 Climbing Houston Center
Thu 10:45:19 PM 30.5728 -95.6725 333° Northwest 369 425 16,300 2,311 Climbing Houston Center
Thu 10:46:20 PM 30.6717 -95.7233 336° Northwest 382 440 18,300 1,869 Climbing Houston Center
Thu 10:47:21 PM 30.7686 -95.7789 334° Northwest 382 440 20,100 1,707 Climbing Houston Center
Thu 10:48:23 PM 30.8703 -95.8328 336° Northwest 390 449 21,800 1,463 Climbing Houston Center
Thu 10:49:24 PM 30.9786 -95.8906 335° Northwest 416 479 23,100 1,426 Climbing Houston Center
Thu 10:50:25 PM 31.0872 -95.9494 335° Northwest 427 491 24,700 1,475 Climbing Houston Center
Thu 10:51:26 PM 31.2008 -95.9994 339° North 433 498 26,100 1,377 Climbing Houston Center
Thu 10:52:27 PM 31.3189 -96.0450 342° North 442 509 27,500 1,415 Climbing Houston Center
Thu 10:53:29 PM 31.4414 -96.0908 342° North 450 518 29,000 1,317 Climbing Houston Center
Thu 10:54:30 PM 31.5614 -96.1378 342° North 451 519 30,200 1,230 Climbing Houston Center
Thu 10:55:31 PM 31.6836 -96.1856 342° North 457 526 31,500 1,377 Climbing Houston Center
Thu 10:56:32 PM 31.8056 -96.2383 340° North 462 532 33,000 1,317 Climbing Houston Center
Thu 10:57:34 PM 31.8978 -96.3447 316° Northwest 463 533 34,200 1,268 Climbing Houston Center
Thu 10:58:35 PM 31.9928 -96.4886 308° West 472 543 35,600 837 Climbing Houston Center
Thu 10:59:43 PM 32.0731 -96.6167 307° West 465 535 36,000 188 Climbing Fort Worth Center
Thu 11:00:43 PM 32.1531 -96.7361 308° West 465 535 36,000  Level Fort Worth Center
Thu 11:01:43 PM 32.2350 -96.8583 308° West 471 542 36,000  Level Fort Worth Center
Thu 11:02:43 PM 32.3192 -96.9831 309° West 483 556 36,000  Level Fort Worth Center
Thu 11:03:43 PM 32.4008 -97.1083 308° West 483 556 36,000  Level Fort Worth Center
Thu 11:04:43 PM 32.4847 -97.2361 308° West 483 556 36,000  Level Fort Worth Center
Thu 11:05:43 PM 32.5661 -97.3617 308° West 483 556 36,000  Level Fort Worth Center
Thu 11:06:43 PM 32.6539 -97.4972 308° West 483 556 36,000  Level Fort Worth Center
Thu 11:07:43 PM 32.7350 -97.6208 308° West 483 556 36,000  Level Fort Worth Center
Thu 11:08:43 PM 32.8161 -97.7422 309° West 478 550 36,000  Level Fort Worth Center
Thu 11:09:43 PM 32.8972 -97.8614 309° West 478 550 36,000  Level Fort Worth Center
Thu 11:10:43 PM 32.9781 -97.9831 308° West 473 544 36,000  Level Fort Worth Center
Thu 11:11:43 PM 33.0589 -98.1050 308° West 468 539 36,000  Level Fort Worth Center
Thu 11:12:43 PM 33.1375 -98.2272 308° West 468 539 36,000  Level Fort Worth Center
Thu 11:13:43 PM 33.2161 -98.3494 308° West 468 539 36,000  Level Fort Worth Center
Thu 11:14:43 PM 33.2944 -98.4672 309° West 468 539 36,000  Level Fort Worth Center
Thu 11:15:43 PM 33.3747 -98.5900 308° West 462 532 36,000  Level Fort Worth Center
Thu 11:16:43 PM 33.4550 -98.7156 307° West 475 547 36,000  Level Fort Worth Center
Thu 11:17:43 PM 33.5350 -98.8389 308° West 475 547 36,000  Level Fort Worth Center
Thu 11:18:43 PM 33.6147 -98.9700 306° West 481 554 36,000  Level Fort Worth Center
Thu 11:19:43 PM 33.6944 -99.0936 308° West 481 554 36,000  Level Fort Worth Center
Thu 11:20:43 PM 33.7722 -99.2150 308° West 476 548 36,000  Level Fort Worth Center
Thu 11:21:43 PM 33.8375 -99.3164 308° West 476 548 36,000  Level Fort Worth Center
Thu 11:22:43 PM 33.9289 -99.4661 306° West 476 548 36,000  Level Fort Worth Center
Thu 11:23:43 PM 33.9828 -99.6178 293° West 476 548 36,000  Level Fort Worth Center
Thu 11:24:43 PM 34.0364 -99.7594 295° West 476 548 36,000  Level Fort Worth Center
Thu 11:25:43 PM 34.0881 -99.9064 293° West 476 548 36,000  Level Fort Worth Center
Thu 11:26:43 PM 34.1414 -100.0508 294° West 476 548 36,000  Level Fort Worth Center
Thu 11:27:43 PM 34.1967 -100.1981 294° West 476 548 36,000  Level Fort Worth Center
Thu 11:30:06 PM 34.3150 -100.5317 293° West 478 550 36,000  Level Albuquerque Center
Thu 11:31:07 PM 34.3669 -100.6786 293° West 477 549 36,000  Level Albuquerque Center
Thu 11:32:09 PM 34.4194 -100.8256 293° West 476 548 36,000  Level Albuquerque Center
Thu 11:33:10 PM 34.4717 -100.9719 293° West 475 547 36,000  Level Albuquerque Center
Thu 11:34:11 PM 34.5222 -101.1169 293° West 471 542 36,000  Level Albuquerque Center
Thu 11:35:13 PM 34.5731 -101.2617 293° West 468 539 36,000  Level Albuquerque Center
Thu 11:36:14 PM 34.6336 -101.4336 293° West 464 534 36,000  Level Albuquerque Center
Thu 11:37:16 PM 34.6847 -101.5772 293° West 461 531 36,000  Level Albuquerque Center
Thu 11:38:17 PM 34.7342 -101.7225 293° West 462 532 36,000  Level Albuquerque Center
Thu 11:39:19 PM 34.7839 -101.8664 293° West 461 531 36,000  Level Albuquerque Center
Thu 11:40:20 PM 34.8353 -102.0100 294° West 460 529 36,000  Level Albuquerque Center
Thu 11:41:22 PM 34.8872 -102.1539 294° West 461 531 36,000  Level Albuquerque Center
Thu 11:42:23 PM 34.9378 -102.2989 293° West 462 532 36,000  Level Albuquerque Center
Thu 11:43:24 PM 34.9897 -102.4431 294° West 463 533 36,000  Level Albuquerque Center
Thu 11:44:26 PM 35.0417 -102.5861 294° West 462 532 36,000  Level Albuquerque Center
Thu 11:45:27 PM 35.0947 -102.7317 294° West 467 537 36,000  Level Albuquerque Center
Thu 11:46:29 PM 35.1572 -102.9036 294° West 463 533 36,000  Level Albuquerque Center
Thu 11:47:30 PM 35.2114 -103.0486 295° West 465 535 36,000  Level Albuquerque Center
Thu 11:48:31 PM 35.2653 -103.1942 294° West 467 537 36,000  Level Albuquerque Center
Thu 11:49:33 PM 35.3183 -103.3400 294° West 467 537 36,000  Level Albuquerque Center
Thu 11:50:34 PM 35.3711 -103.4842 294° West 463 533 36,000  Level Albuquerque Center
Thu 11:51:35 PM 35.4256 -103.6275 295° West 462 532 36,000  Level Albuquerque Center
Thu 11:52:37 PM 35.5086 -103.7481 310° West 462 532 36,000  Level Albuquerque Center
Thu 11:53:38 PM 35.5969 -103.8639 313° West 462 532 36,000  Level Albuquerque Center
Thu 11:54:39 PM 35.6844 -103.9811 313° West 464 534 36,000  Level Albuquerque Center
Thu 11:55:41 PM 35.7722 -104.0975 313° West 463 533 36,000  Level Albuquerque Center
Thu 11:56:42 PM 35.8592 -104.2133 313° West 460 529 36,000  Level Albuquerque Center
Thu 11:57:43 PM 35.9606 -104.3503 312° West 460 529 36,000  Level Albuquerque Center
Thu 11:58:45 PM 36.0478 -104.4672 313° West 460 529 36,000  Level Albuquerque Center
Thu 11:59:46 PM 36.1344 -104.5839 313° West 458 527 36,000  Level Albuquerque Center
Fri 12:00:47 AM 36.2208 -104.6981 313° West 454 522 36,000  Level Albuquerque Center
Fri 12:01:49 AM 36.3061 -104.8136 313° West 451 519 36,000  Level Albuquerque Center
Fri 12:02:50 AM 36.3906 -104.9311 312° West 452 520 36,000  Level Albuquerque Center
Fri 12:03:51 AM 36.4772 -105.0469 313° West 454 522 36,000  Level Albuquerque Center
Fri 12:04:52 AM 36.5633 -105.1644 312° West 456 525 36,000  Level Albuquerque Center
Fri 12:05:53 AM 36.6583 -105.2964 312° West 461 531 36,000  Level Albuquerque Center
Fri 12:06:55 AM 36.7400 -105.4081 312° West 456 525 36,000  Level Albuquerque Center
Fri 12:07:56 AM 36.8272 -105.5308 312° West 459 528 36,000  Level Albuquerque Center
Fri 12:08:57 AM 36.9133 -105.6469 313° West 470 541 36,000  Level Albuquerque Center
Fri 12:09:55 AM 37.0003 -105.7706 311° West 457 526 36,000  Level Denver Center
Fri 12:10:56 AM 37.0861 -105.8922 312° West 459 528 36,000  Level Denver Center
Fri 12:11:57 AM 37.1689 -106.0067 312° West 461 531 36,000  Level Denver Center
Fri 12:12:59 AM 37.2489 -106.1217 311° West 459 528 36,000  Level Denver Center
Fri 12:14:00 AM 37.3453 -106.2542 312° West 461 531 36,000  Level Denver Center
Fri 12:15:01 AM 37.4258 -106.3694 311° West 461 531 36,000  Level Denver Center
Fri 12:16:02 AM 37.5200 -106.5050 311° West 460 529 36,000 195 Level Denver Center
Fri 12:17:04 AM 37.5983 -106.6200 311° West 455 524 36,400 732 Climbing Denver Center
Fri 12:18:05 AM 37.6792 -106.7364 311° West 459 528 37,500 787 Climbing Denver Center
Fri 12:19:06 AM 37.7753 -106.8722 312° West 466 536 38,000 244 Climbing Denver Center
Fri 12:20:08 AM 37.8536 -106.9881 311° West 464 534 38,000  Level Denver Center
Fri 12:21:09 AM 37.9483 -107.1253 311° West 460 529 38,000  Level Denver Center
Fri 12:22:10 AM 38.0297 -107.2439 311° West 459 528 38,000  Level Denver Center
Fri 12:23:11 AM 38.1214 -107.3792 311° West 457 526 38,000  Level Denver Center
Fri 12:24:13 AM 38.2006 -107.4958 311° West 456 525 38,000  Level Denver Center
Fri 12:25:14 AM 38.2808 -107.6150 311° West 461 531 38,000  Level Denver Center
Fri 12:26:15 AM 38.3747 -107.7556 310° West 468 539 38,000  Level Denver Center
Fri 12:27:16 AM 38.4531 -107.8758 310° West 461 531 38,000  Level Denver Center
Fri 12:28:18 AM 38.5331 -107.9947 311° West 460 529 38,000  Level Denver Center
Fri 12:29:19 AM 38.6253 -108.1344 310° West 460 529 38,000  Level Denver Center
Fri 12:30:20 AM 38.7042 -108.2547 310° West 461 531 38,000  Level Denver Center
Fri 12:31:21 AM 38.7961 -108.3956 310° West 461 531 38,000  Level Denver Center
Fri 12:32:23 AM 38.8767 -108.5169 310° West 466 536 38,000  Level Denver Center
Fri 12:33:24 AM 38.9569 -108.6394 310° West 468 539 38,000  Level Denver Center
Fri 12:34:25 AM 39.0500 -108.7806 310° West 461 531 38,000  Level Denver Center
Fri 12:35:26 AM 39.1108 -108.9183 300° West 458 527 38,000  Level Denver Center
Fri 12:36:27 AM 39.1669 -109.0592 297° West 459 528 38,000  Level Denver Center
Fri 12:36:57 AM 39.1947 -109.1286 297° West 456 525 38,000  Level Salt Lake Center
Fri 12:37:29 AM 39.2325 -109.2219 298° West 456 525 38,000  Level Denver Center
Fri 12:38:30 AM 39.2881 -109.3614 297° West 454 522 38,000  Level Denver Center
Fri 12:39:00 AM 39.3153 -109.4306 297° West 452 520 38,000  Level Salt Lake Center
Fri 12:40:01 AM 39.3792 -109.5903 297° West 448 516 38,000  Level Salt Lake Center
Fri 12:41:02 AM 39.4339 -109.7283 297° West 447 514 38,000  Level Salt Lake Center
Fri 12:42:04 AM 39.5092 -109.8489 309° West 446 513 38,000  Level Salt Lake Center
Fri 12:43:04 AM 39.6056 -109.9869 312° West 456 525 38,000  Level Salt Lake Center
Fri 12:44:05 AM 39.6853 -110.1025 312° West 452 520 38,000  Level Salt Lake Center
Fri 12:45:06 AM 39.7681 -110.2200 313° West 457 526 38,000  Level Salt Lake Center
Fri 12:46:08 AM 39.8614 -110.3514 313° West 448 516 38,000  Level Salt Lake Center
Fri 12:47:09 AM 39.9639 -110.4389 327° Northwest 451 519 38,000  Level Salt Lake Center
Fri 12:48:10 AM 40.0650 -110.5264 326° Northwest 453 521 38,000  Level Salt Lake Center
Fri 12:49:11 AM 40.1811 -110.6322 325° Northwest 453 521 38,000  Level Salt Lake Center
Fri 12:50:12 AM 40.2592 -110.7522 310° West 454 522 38,000  Level Salt Lake Center
Fri 12:51:13 AM 40.3336 -110.8656 311° West 447 514 38,000  Level Salt Lake Center
Fri 12:52:14 AM 40.4172 -110.9944 310° West 442 509 38,000  Level Salt Lake Center
Fri 12:53:16 AM 40.5006 -111.1247 310° West 447 514 38,000  Level Salt Lake Center
Fri 12:54:17 AM 40.5842 -111.2558 310° West 453 521 38,000  Level Salt Lake Center
Fri 12:55:18 AM 40.6647 -111.3814 310° West 448 516 38,000  Level Salt Lake Center
Fri 12:56:19 AM 40.7494 -111.5181 309° West 437 503 38,000  Level Salt Lake Center
Fri 12:57:20 AM 40.8111 -111.6161 310° West 447 514 38,000  Level Salt Lake Center
Fri 12:58:21 AM 40.8989 -111.7547 310° West 442 509 38,000  Level Salt Lake Center
Fri 12:59:22 AM 40.9861 -111.8914 310° West 452 520 38,000  Level Salt Lake Center
Fri 01:00:23 AM 41.0547 -112.0014 310° West 447 514 38,000  Level Salt Lake Center
Fri 01:01:24 AM 41.1375 -112.1336 310° West 445 512 38,000  Level Salt Lake Center
Fri 01:02:26 AM 41.2219 -112.2725 309° West 442 509 38,000  Level Salt Lake Center
Fri 01:03:27 AM 41.3050 -112.4072 309° West 448 516 38,000  Level Salt Lake Center
Fri 01:04:28 AM 41.3850 -112.5394 309° West 441 507 38,000  Level Salt Lake Center
Fri 01:05:29 AM 41.4644 -112.6742 308° West 445 512 38,000  Level Salt Lake Center
Fri 01:06:30 AM 41.5250 -112.7864 306° West 444 511 38,000  Level Salt Lake Center
Fri 01:07:31 AM 41.6006 -112.9253 306° West 443 510 38,000  Level Salt Lake Center
Fri 01:08:32 AM 41.6758 -113.0714 305° West 440 506 38,000  Level Salt Lake Center
Fri 01:09:33 AM 41.7494 -113.2097 306° West 438 504 38,000  Level Salt Lake Center
Fri 01:10:34 AM 41.8225 -113.3478 305° West 437 503 38,000  Level Salt Lake Center
Fri 01:11:35 AM 41.8972 -113.4894 305° West 437 503 38,000  Level Salt Lake Center
Fri 01:12:36 AM 41.9547 -113.6022 304° West 434 499 38,000  Level Salt Lake Center
Fri 01:13:37 AM 42.0275 -113.7422 305° West 427 491 38,000  Level Salt Lake Center
Fri 01:14:38 AM 42.1000 -113.8814 305° West 434 499 38,000  Level Salt Lake Center
Fri 01:15:40 AM 42.1733 -114.0253 305° West 431 496 38,000  Level Salt Lake Center
Fri 01:16:41 AM 42.2442 -114.1617 305° West 428 493 38,000  Level Salt Lake Center
Fri 01:17:42 AM 42.3147 -114.3022 304° West 428 493 38,000  Level Salt Lake Center
Fri 01:18:43 AM 42.3719 -114.4167 304° West 434 499 38,000  Level Salt Lake Center
Fri 01:19:44 AM 42.4436 -114.5564 305° West 438 504 38,000  Level Salt Lake Center
Fri 01:20:45 AM 42.5150 -114.6983 304° West 438 504 38,000  Level Salt Lake Center
Fri 01:21:46 AM 42.5881 -114.8406 305° West 447 514 38,000  Level Salt Lake Center
Fri 01:22:47 AM 42.6625 -114.9919 304° West 438 504 38,000  Level Salt Lake Center
Fri 01:23:48 AM 42.7275 -115.1228 304° West 435 501 38,000  Level Salt Lake Center
Fri 01:24:49 AM 42.7919 -115.2533 304° West 432 497 38,000  Level Salt Lake Center
Fri 01:25:50 AM 42.8678 -115.4075 304° West 437 503 38,000  Level Salt Lake Center
Fri 01:26:51 AM 42.9311 -115.5358 304° West 430 495 38,000  Level Salt Lake Center
Fri 01:27:52 AM 43.0053 -115.6875 304° West 429 494 38,000  Level Salt Lake Center
Fri 01:28:53 AM 43.0689 -115.8144 304° West 425 489 38,000  Level Salt Lake Center
Fri 01:29:55 AM 43.1306 -115.9456 303° West 426 490 38,000  Level Salt Lake Center
Fri 01:30:56 AM 43.2053 -116.1053 303° West 418 481 38,000  Level Salt Lake Center
Fri 01:31:57 AM 43.2675 -116.2367 303° West 426 490 38,000  Level Salt Lake Center
Fri 01:32:58 AM 43.3294 -116.3672 303° West 427 491 38,000  Level Salt Lake Center
Fri 01:33:59 AM 43.4022 -116.5203 303° West 427 491 38,000  Level Salt Lake Center
Fri 01:35:00 AM 43.4650 -116.6528 303° West 432 497 38,000  Level Salt Lake Center
Fri 01:36:01 AM 43.5264 -116.7850 303° West 428 493 38,000  Level Salt Lake Center
Fri 01:37:02 AM 43.5992 -116.9406 303° West 431 496 38,000  Level Salt Lake Center
Fri 01:38:03 AM 43.6617 -117.0744 303° West 434 499 38,000  Level Salt Lake Center
Fri 01:39:04 AM 43.7239 -117.2086 303° West 434 499 38,000  Level Salt Lake Center
Fri 01:40:05 AM 43.7953 -117.3658 302° West 431 496 38,000  Level Salt Lake Center
Fri 01:41:06 AM 43.8578 -117.5006 303° West 433 498 38,000  Level Salt Lake Center
Fri 01:42:07 AM 43.9186 -117.6356 302° West 432 497 38,000  Level Salt Lake Center
Fri 01:43:08 AM 43.9900 -117.7925 302° West 431 496 38,000  Level Salt Lake Center
Fri 01:44:09 AM 44.0500 -117.9258 302° West 426 490 38,000  Level Salt Lake Center
Fri 01:45:10 AM 44.1189 -118.0817 302° West 424 488 38,000  Level Salt Lake Center
Fri 01:46:11 AM 44.1797 -118.2169 302° West 427 491 38,000  Level Salt Lake Center
Fri 01:47:12 AM 44.2414 -118.3522 303° West 431 496 38,000  Level Salt Lake Center
Fri 01:48:13 AM 44.3114 -118.5089 302° West 434 499 38,000  Level Salt Lake Center
Fri 01:49:14 AM 44.3739 -118.6519 301° West 431 496 38,000  Level Salt Lake Center
Fri 01:50:15 AM 44.4372 -118.7944 302° West 433 498 38,000  Level Salt Lake Center
Fri 01:51:16 AM 44.4989 -118.9383 301° West 432 497 38,000  Level Salt Lake Center
Fri 01:52:17 AM 44.5606 -119.0831 301° West 433 498 38,000  Level Salt Lake Center
Fri 01:53:18 AM 44.6228 -119.2253 302° West 429 494 38,000  Level Salt Lake Center
Fri 01:54:19 AM 44.6842 -119.3683 301° West 429 494 38,000  Level Salt Lake Center
Fri 01:55:20 AM 44.7458 -119.5122 301° West 428 493 38,000  Level Salt Lake Center
Fri 01:56:21 AM 44.8064 -119.6550 301° West 427 491 38,000 -246 Level Salt Lake Center
Fri 01:57:22 AM 44.8667 -119.7972 301° West 423 487 37,500 -681 Descending Salt Lake Center
Fri 01:58:42 AM 44.9458 -119.9842 301° West 421 484 36,400 -1,489 Descending Seattle Center
Fri 01:59:43 AM 45.0128 -120.1472 300° West 419 482 34,000 -2,430 Descending Seattle Center
Fri 02:00:43 AM 45.0722 -120.2900 301° West 420 483 31,500 -2,628 Descending Seattle Center
Fri 02:01:44 AM 45.1314 -120.4328 300° West 422 486 28,700 -2,262 Descending Seattle Center
Fri 02:02:45 AM 45.1878 -120.5711 300° West 413 475 26,900 -1,983 Descending Seattle Center
Fri 02:03:45 AM 45.2386 -120.7056 298° West 396 456 24,700 -2,132 Descending Seattle Center
Fri 02:04:46 AM 45.2892 -120.8353 299° West 383 441 22,600 -2,033 Descending Seattle Center
Fri 02:05:46 AM 45.3386 -120.9639 299° West 375 432 20,600 -2,182 Descending Seattle Center
Fri 02:06:47 AM 45.3858 -121.0889 298° West 365 420 18,200 -2,033 Descending Seattle Center
Fri 02:07:47 AM 45.4306 -121.2139 297° West 356 410 16,500 -1,832 Descending Seattle Center
Fri 02:08:22 AM 45.4453 -121.2978 284° West 341 392 15,300 -2,077 Descending Seattle Center
Fri 02:09:05 AM 45.4658 -121.3942 287° West 326 375 13,800 -1,814 Descending Seattle Center
Fri 02:09:48 AM 45.4797 -121.4647 286° West 328 377 12,700 -1,615 Descending Seattle Center
Fri 02:10:49 AM 45.5033 -121.5847 286° West 321 369 11,000 -1,323 Descending Seattle Center
Fri 02:11:55 AM 45.5297 -121.7256 285° West 290 334 9,900 -950 Descending Seattle Center
Fri 02:12:49 AM 45.5300 -121.8211 270° West 272 313 9,100 -879 Descending Seattle Center
Fri 02:13:51 AM 45.5253 -121.9178 266° West 276 318 8,200 -1,082 Descending Seattle Center
Fri 02:14:51 AM 45.5206 -122.0242 266° West 275 316 6,900 -1,350 Descending Seattle Center
Fri 02:15:51 AM 45.5181 -122.1506 268° West 265 305 5,500 -992 Descending Seattle Center
Fri 02:16:52 AM 45.5178 -122.2328 270° West 267 307 4,900 -934 Descending Seattle Center
Fri 02:17:53 AM 45.5147 -122.3256 267° West 252 290 3,600 -1,279 Descending Seattle Center

Login

Don't have an account? Register now (free) for customized features, flight alerts, and more!